EGPI - Islay
Distance from station: E 5mi, 14km
Updated: 02/19/2018 5:20am
Mostly Cloudy
Mostly Cloudy
 Wind from W
Wind: W 7 mph , 11 km/h
Temperature: 48°F , 9°C
Wind Chill: 45°F , 7°C
Dew Point: 48°F , 9°C
Humidity: 100%
Barometer: 30.03 inHg , 1017 hPa
Clouds: Mostly Cloudy
Visibility: 6 miles , 9 km
Cloud details: Few Clouds 300 ft
Mostly Cloudy 1200 ft
Mostly Cloudy 2000 ft
2018/02/19 13:20 EGPI 191320Z 26006KT 230V290 9000 FEW003 BKN012 BKN020 09/09 Q1017